Time;durP1;ratioP1;P1;durP2;ratioP2;P2;SDS_P1;SDS_P2;PMS_P1;PMS_P2;Temp;Humidity;BMP_temperature;BMP_pressure;BME280_temperature;BME280_humidity;BME280_pressure;Samples;Min_cycle;Max_cycle;Signal;HPM_P1;HPM_P2
2021/08/13 00:00:16;;;;;;;10.27;7.50;;;;;;;23.72;54.91;97012.88;5074750;28;20186;-73
2021/08/13 00:02:41;;;;;;;8.43;7.07;;;;;;;23.76;54.57;97013.19;5073722;28;20233;-73
2021/08/13 00:05:08;;;;;;;12.20;7.23;;;;;;;23.86;54.56;97024.09;5068824;28;20193;-73
2021/08/13 00:07:33;;;;;;;10.53;7.80;;;;;;;23.74;54.53;97016.13;5077036;28;20184;-73
2021/08/13 00:09:59;;;;;;;9.20;7.77;;;;;;;23.67;54.99;97020.00;5076391;28;20519;-74
2021/08/13 00:12:24;;;;;;;14.10;7.60;;;;;;;23.68;54.89;97017.09;5061391;28;20203;-72
2021/08/13 00:14:50;;;;;;;10.50;7.53;;;;;;;23.65;55.15;97009.56;5059875;28;20567;-72
2021/08/13 00:17:15;;;;;;;17.73;7.77;;;;;;;23.86;54.05;97008.03;5068362;28;20258;-73
2021/08/13 00:19:41;;;;;;;10.77;7.70;;;;;;;23.68;54.68;97003.75;5066866;28;20240;-74
2021/08/13 00:22:07;;;;;;;13.93;7.70;;;;;;;23.88;53.97;97013.13;5073997;28;20216;-72
2021/08/13 00:24:32;;;;;;;12.80;8.00;;;;;;;24.00;53.35;97005.88;5074030;28;20179;-72
2021/08/13 00:26:58;;;;;;;9.10;7.60;;;;;;;23.93;53.89;97008.69;5074358;28;20885;-73
2021/08/13 00:29:23;;;;;;;9.27;7.00;;;;;;;24.21;52.85;97014.19;5074166;28;20249;-72
2021/08/13 00:31:49;;;;;;;10.23;7.47;;;;;;;24.28;53.33;97011.34;5074041;28;20220;-72
2021/08/13 00:34:15;;;;;;;8.13;7.30;;;;;;;24.33;52.94;97014.91;5065170;28;20294;-72
2021/08/13 00:36:40;;;;;;;14.10;8.20;;;;;;;24.31;53.22;97019.72;5073842;28;20190;-73
2021/08/13 00:39:06;;;;;;;9.40;7.37;;;;;;;24.30;53.28;97019.97;5073416;28;20214;-72
2021/08/13 00:41:31;;;;;;;11.20;7.83;;;;;;;24.32;53.15;97029.34;5073730;28;20294;-73
2021/08/13 00:43:57;;;;;;;11.20;7.80;;;;;;;24.29;53.05;97029.03;5067914;28;20193;-73
2021/08/13 00:46:23;;;;;;;8.10;7.27;;;;;;;24.27;53.30;97023.94;5073749;28;20653;-72
2021/08/13 00:48:48;;;;;;;9.00;8.10;;;;;;;24.28;53.24;97020.22;5074117;28;20185;-72
2021/08/13 00:51:14;;;;;;;11.70;8.20;;;;;;;24.23;53.13;97020.13;5073651;28;20202;-71
2021/08/13 00:53:39;;;;;;;14.03;7.47;;;;;;;24.19;53.22;97019.81;5073253;28;20210;-73
2021/08/13 00:56:05;;;;;;;12.30;7.80;;;;;;;24.12;53.36;97021.84;5072295;28;20186;-73
2021/08/13 00:58:31;;;;;;;11.93;7.70;;;;;;;23.94;54.17;97020.22;5072408;28;20190;-73
2021/08/13 01:00:57;;;;;;;10.23;7.77;;;;;;;24.07;53.87;97016.41;5072391;28;20186;-72
2021/08/13 01:03:23;;;;;;;8.40;7.50;;;;;;;24.13;53.69;97022.66;5073163;28;20189;-73
2021/08/13 01:05:48;;;;;;;10.20;7.20;;;;;;;24.07;53.91;97017.22;5073233;28;20429;-72
2021/08/13 01:08:14;;;;;;;14.17;7.67;;;;;;;24.03;53.94;97017.94;5073265;28;20178;-72
2021/08/13 01:10:46;;;;;;;10.27;7.60;;;;;;;24.02;54.15;97022.50;5071469;28;20179;-73
2021/08/13 01:13:13;;;;;;;12.30;7.73;;;;;;;23.95;54.30;97021.81;5056424;28;20289;-72
2021/08/13 01:15:52;;;;;;;11.30;8.47;;;;;;;23.88;54.47;97023.84;5071799;28;20424;-72
2021/08/13 01:18:24;;;;;;;8.07;7.27;;;;;;;23.88;54.65;97015.81;5069610;28;20765;-73
2021/08/13 01:21:08;;;;;;;9.57;7.70;;;;;;;23.74;54.87;97026.03;5066569;28;20874;-72
2021/08/13 01:23:38;;;;;;;9.43;7.87;;;;;;;23.74;54.94;97016.13;5058452;28;20500;-73
2021/08/13 01:26:04;;;;;;;10.23;7.80;;;;;;;23.74;54.64;97021.47;5072690;28;20436;-73
2021/08/13 01:28:39;;;;;;;9.77;8.20;;;;;;;23.75;54.81;97024.97;5073132;28;20413;-72
2021/08/13 01:31:12;;;;;;;11.07;8.40;;;;;;;23.70;54.83;97038.25;5072589;28;20440;-72
2021/08/13 01:33:40;;;;;;;17.73;7.97;;;;;;;23.76;54.74;97038.09;5071532;28;20467;-72
2021/08/13 01:36:07;;;;;;;17.97;7.83;;;;;;;23.56;55.31;97040.44;5072671;28;20428;-73
2021/08/13 01:38:35;;;;;;;9.07;7.60;;;;;;;23.43;55.50;97037.00;5072855;28;20961;-72
2021/08/13 01:41:02;;;;;;;10.13;7.80;;;;;;;23.46;54.82;97054.41;5071386;28;20428;-73
2021/08/13 01:43:29;;;;;;;11.03;7.00;;;;;;;23.57;54.53;97048.19;5054280;28;20838;-72
2021/08/13 01:45:55;;;;;;;10.20;7.90;;;;;;;23.54;54.30;97050.56;5071957;28;20436;-71
2021/08/13 01:48:23;;;;;;;10.53;7.97;;;;;;;23.60;54.36;97041.56;5072888;28;20421;-72
2021/08/13 01:50:48;;;;;;;10.00;7.77;;;;;;;23.52;54.33;97044.63;5069234;28;21045;-73
2021/08/13 01:53:15;;;;;;;9.67;8.17;;;;;;;23.45;54.89;97040.22;5070965;28;20456;-73
2021/08/13 01:55:41;;;;;;;10.63;8.80;;;;;;;23.66;54.00;97040.59;5069193;28;20182;-72
2021/08/13 01:58:07;;;;;;;10.90;7.63;;;;;;;23.77;53.49;97041.56;5054591;28;20425;-72
2021/08/13 02:00:33;;;;;;;8.47;7.40;;;;;;;23.82;53.58;97043.56;5072754;28;20486;-73
2021/08/13 02:03:00;;;;;;;11.60;7.63;;;;;;;23.80;53.34;97040.31;5071345;28;20213;-73
2021/08/13 02:05:31;;;;;;;10.00;7.70;;;;;;;23.87;53.04;97044.44;5072251;28;20270;-72
2021/08/13 02:08:01;;;;;;;8.93;8.03;;;;;;;23.88;53.03;97037.22;5072617;28;20931;-72
2021/08/13 02:10:27;;;;;;;13.00;7.70;;;;;;;23.90;52.99;97043.94;5072070;28;20424;-72
2021/08/13 02:12:52;;;;;;;14.90;8.60;;;;;;;23.87;53.26;97035.59;5057800;28;20446;-72
2021/08/13 02:15:18;;;;;;;16.53;8.57;;;;;;;23.81;53.22;97031.22;5069290;28;20743;-72
2021/08/13 02:17:52;;;;;;;62.97;20.00;;;;;;;23.74;53.54;97031.38;5065298;28;20270;-73
2021/08/13 02:20:19;;;;;;;167.03;42.50;;;;;;;23.57;54.12;97031.31;5060452;28;20182;-71
2021/08/13 02:22:44;;;;;;;31.83;13.70;;;;;;;23.70;53.98;97038.25;5070955;28;20432;-72
2021/08/13 02:25:10;;;;;;;24.97;12.40;;;;;;;23.81;53.64;97032.03;5071756;28;20962;-73
2021/08/13 02:27:36;;;;;;;42.50;15.57;;;;;;;23.83;53.72;97029.91;5067533;28;20190;-73
2021/08/13 02:30:03;;;;;;;42.43;15.20;;;;;;;23.89;53.33;97034.28;5067474;28;20208;-73
2021/08/13 02:32:29;;;;;;;31.00;13.70;;;;;;;23.91;53.15;97024.16;5067037;28;20237;-73
2021/08/13 02:34:55;;;;;;;20.13;11.50;;;;;;;23.89;53.40;97015.56;5065790;28;20496;-73
2021/08/13 02:37:24;;;;;;;15.33;9.30;;;;;;;23.88;53.35;97013.13;5070374;28;20269;-72
2021/08/13 02:40:00;;;;;;;12.67;8.63;;;;;;;23.89;53.24;97017.44;5070361;28;20416;-73
2021/08/13 02:42:38;;;;;;;13.97;8.60;;;;;;;23.90;53.17;97016.38;5056403;28;20441;-72
2021/08/13 02:45:05;;;;;;;21.20;11.83;;;;;;;23.88;53.75;97013.94;5064770;28;20420;-72
2021/08/13 02:47:30;;;;;;;17.33;10.87;;;;;;;23.88;53.61;97013.13;5064085;28;20421;-72
2021/08/13 02:50:01;;;;;;;13.07;9.80;;;;;;;23.91;53.92;97009.97;5070458;28;20523;-72
2021/08/13 02:52:32;;;;;;;14.33;9.27;;;;;;;23.95;54.01;97008.44;5063346;28;20298;-72
2021/08/13 02:55:02;;;;;;;11.93;9.00;;;;;;;23.89;54.43;97004.84;5069829;28;20949;-73
2021/08/13 02:57:30;;;;;;;24.33;12.43;;;;;;;24.00;54.14;97008.56;5071437;28;20924;-73
2021/08/13 02:59:56;;;;;;;20.57;10.80;;;;;;;23.99;54.11;97017.63;5063097;28;20424;-72
2021/08/13 03:02:23;;;;;;;17.73;11.00;;;;;;;23.97;53.98;97014.38;5069711;28;21038;-72
2021/08/13 03:04:50;;;;;;;22.47;10.80;;;;;;;24.02;54.11;97022.50;5069781;28;20182;-72
2021/08/13 03:07:17;;;;;;;30.73;11.70;;;;;;;24.04;53.81;97020.41;5071201;28;20796;-73
2021/08/13 03:09:43;;;;;;;51.90;19.30;;;;;;;24.13;53.37;97019.97;5071488;28;20446;-73
2021/08/13 03:12:10;;;;;;;28.20;11.53;;;;;;;24.03;54.03;97018.78;5061311;28;20523;-73
2021/08/13 03:14:36;;;;;;;29.10;12.60;;;;;;;24.18;53.49;97022.75;5029936;28;20988;-72
2021/08/13 03:17:02;;;;;;;17.33;11.10;;;;;;;24.23;53.05;97022.81;5064378;28;20515;-73
2021/08/13 03:19:28;;;;;;;25.43;10.20;;;;;;;24.26;52.98;97026.88;5063112;28;20186;-72
2021/08/13 03:21:53;;;;;;;20.30;11.20;;;;;;;24.30;53.11;97022.63;5067453;28;20439;-73
2021/08/13 03:24:19;;;;;;;18.00;9.70;;;;;;;24.32;53.10;97015.97;5043638;28;20209;-74
2021/08/13 03:26:47;;;;;;;14.70;9.53;;;;;;;24.30;53.20;97023.47;5071704;28;20182;-73
2021/08/13 03:29:12;;;;;;;10.80;9.20;;;;;;;24.32;53.26;97015.97;5071625;28;20182;-72
2021/08/13 03:31:42;;;;;;;14.10;9.70;;;;;;;24.33;53.43;97012.25;5059794;28;20819;-73
2021/08/13 03:34:08;;;;;;;15.57;10.23;;;;;;;24.36;52.96;97005.59;5041387;28;20242;-73
2021/08/13 03:36:35;;;;;;;16.50;9.57;;;;;;;24.30;53.47;97004.72;5059473;28;20499;-73
2021/08/13 03:39:01;;;;;;;13.80;10.00;;;;;;;24.36;53.28;97017.13;5061424;28;20437;-72
2021/08/13 03:41:26;;;;;;;15.97;10.50;;;;;;;24.39;53.44;97021.16;5060077;28;20498;-73
2021/08/13 03:43:52;;;;;;;16.93;9.90;;;;;;;24.40;53.18;97017.41;5059386;28;20183;-72
2021/08/13 03:46:18;;;;;;;14.43;9.57;;;;;;;24.37;53.74;97016.06;5051996;28;20217;-73
2021/08/13 03:48:43;;;;;;;13.30;9.20;;;;;;;24.42;53.57;97018.00;5055685;28;20286;-72
2021/08/13 03:51:09;;;;;;;18.53;9.73;;;;;;;24.45;53.35;97016.69;5060355;28;20203;-71
2021/08/13 03:53:35;;;;;;;11.63;9.07;;;;;;;24.46;53.32;97031.69;5052059;28;20563;-73
2021/08/13 03:56:00;;;;;;;12.07;9.40;;;;;;;24.21;54.89;97031.09;5052103;28;20195;-74
2021/08/13 03:58:26;;;;;;;12.60;9.10;;;;;;;24.30;54.35;97028.00;5051587;28;20187;-73
2021/08/13 04:00:51;;;;;;;14.80;8.60;;;;;;;24.46;54.44;97037.88;5053942;28;20316;-73
2021/08/13 04:03:17;;;;;;;19.47;9.00;;;;;;;24.32;54.85;97048.09;5048114;28;20563;-72
2021/08/13 04:05:43;;;;;;;10.50;8.70;;;;;;;24.36;54.66;97049.25;5057033;28;20519;-74
2021/08/13 04:08:08;;;;;;;11.63;8.83;;;;;;;24.34;54.58;97050.56;5053396;28;20191;-71
2021/08/13 04:10:34;;;;;;;15.33;9.00;;;;;;;24.53;54.55;97053.78;5055290;28;20702;-72
2021/08/13 04:12:59;;;;;;;13.23;9.53;;;;;;;24.65;53.81;97053.66;5054612;28;20217;-72
2021/08/13 04:15:25;;;;;;;12.20;8.97;;;;;;;24.59;53.57;97052.78;5050705;28;20241;-73
2021/08/13 04:17:51;;;;;;;12.67;8.73;;;;;;;24.69;53.49;97060.19;5051239;28;20205;-72
2021/08/13 04:20:16;;;;;;;10.90;8.67;;;;;;;24.63;53.42;97058.47;5051086;28;20189;-73
2021/08/13 04:22:42;;;;;;;9.80;8.40;;;;;;;24.49;53.62;97058.81;5050741;28;20203;-72
2021/08/13 04:25:08;;;;;;;13.03;8.77;;;;;;;24.21;54.88;97049.84;5051188;28;20183;-72
2021/08/13 04:27:33;;;;;;;10.93;8.20;;;;;;;24.39;54.00;97051.44;5057827;28;20911;-72
2021/08/13 04:29:59;;;;;;;12.00;9.50;;;;;;;24.38;54.30;97060.53;5049395;28;20520;-72
2021/08/13 04:32:25;;;;;;;13.00;8.70;;;;;;;24.38;54.29;97063.19;5052182;28;20195;-72
2021/08/13 04:34:50;;;;;;;9.93;8.70;;;;;;;24.31;54.47;97075.97;5050975;28;20206;-72
2021/08/13 04:37:16;;;;;;;11.17;7.87;;;;;;;24.30;54.52;97070.81;5051144;28;20266;-72
2021/08/13 04:39:42;;;;;;;11.20;8.90;;;;;;;24.30;54.61;97074.34;5048556;28;20184;-73
2021/08/13 04:42:08;;;;;;;11.10;8.90;;;;;;;24.18;54.76;97076.28;5057268;28;20951;-73
2021/08/13 04:44:33;;;;;;;11.27;8.37;;;;;;;24.01;55.58;97079.75;5057472;28;20228;-73
2021/08/13 04:46:59;;;;;;;14.50;9.83;;;;;;;24.15;55.20;97079.44;5055558;28;20273;-72
2021/08/13 04:49:25;;;;;;;10.33;9.07;;;;;;;24.13;55.12;97081.53;5053411;28;20183;-72
2021/08/13 04:51:51;;;;;;;11.70;9.43;;;;;;;24.16;54.71;97086.41;5062395;28;20596;-73
2021/08/13 04:54:17;;;;;;;12.37;8.60;;;;;;;24.12;55.24;97086.09;5056386;28;20465;-72
2021/08/13 04:56:42;;;;;;;13.50;8.67;;;;;;;24.08;55.59;97099.13;5060286;28;20896;-72
2021/08/13 04:59:08;;;;;;;10.53;8.80;;;;;;;24.01;55.78;97098.50;5062186;28;20197;-73
2021/08/13 05:01:33;;;;;;;14.33;9.20;;;;;;;24.02;55.73;97089.41;5053160;28;20206;-73
2021/08/13 05:03:59;;;;;;;11.63;9.33;;;;;;;24.05;55.59;97096.13;5054079;28;20189;-72
2021/08/13 05:06:25;;;;;;;13.97;10.03;;;;;;;24.01;56.03;97089.63;5054770;28;20277;-72
2021/08/13 05:08:51;;;;;;;11.73;8.70;;;;;;;24.04;55.91;97095.34;5053707;28;20526;-71
2021/08/13 05:11:16;;;;;;;19.73;8.93;;;;;;;23.97;55.96;97096.53;5054048;28;20686;-72
2021/08/13 05:13:42;;;;;;;11.20;9.03;;;;;;;24.01;55.89;97093.13;5053349;28;20209;-71
2021/08/13 05:16:07;;;;;;;10.97;8.87;;;;;;;24.07;55.74;97094.81;5062744;28;20590;-72
2021/08/13 05:18:34;;;;;;;17.53;9.20;;;;;;;24.13;55.84;97093.03;5065202;28;20247;-72
2021/08/13 05:20:59;;;;;;;15.53;9.97;;;;;;;24.18;55.61;97089.66;5049852;28;20183;-73
2021/08/13 05:23:25;;;;;;;12.63;9.57;;;;;;;24.18;55.65;97089.66;5053294;28;20418;-75
2021/08/13 05:25:51;;;;;;;12.27;9.43;;;;;;;23.97;56.57;97091.97;5053367;28;20236;-72
2021/08/13 05:28:16;;;;;;;12.80;9.87;;;;;;;23.88;56.73;97096.09;5061947;28;20175;-72
2021/08/13 05:30:42;;;;;;;14.70;9.70;;;;;;;24.03;56.44;97100.91;5051293;28;20626;-72
2021/08/13 05:33:07;;;;;;;10.87;9.70;;;;;;;24.09;56.45;97097.28;5045544;28;20218;-73
2021/08/13 05:35:36;;;;;;;11.67;9.83;;;;;;;24.23;56.42;97101.28;5053255;28;20620;-72
2021/08/13 05:38:05;;;;;;;10.10;9.10;;;;;;;24.34;55.62;97098.75;5062070;28;20202;-73
2021/08/13 05:40:31;;;;;;;10.17;8.70;;;;;;;24.30;55.62;97109.13;5060534;28;20445;-73
2021/08/13 05:42:58;;;;;;;12.17;8.67;;;;;;;24.32;55.69;97112.38;5053489;28;20893;-72
2021/08/13 05:45:23;;;;;;;13.67;9.17;;;;;;;23.58;57.94;97111.34;5044364;28;20182;-71
2021/08/13 05:47:49;;;;;;;10.37;9.27;;;;;;;24.14;56.52;97104.59;5073933;28;20424;-72
2021/08/13 05:50:18;;;;;;;11.60;9.23;;;;;;;24.42;55.74;97111.72;5070975;28;20269;-73
2021/08/13 05:52:44;;;;;;;10.67;9.40;;;;;;;24.62;54.98;97107.75;5065578;28;20198;-72
2021/08/13 05:55:10;;;;;;;11.10;8.70;;;;;;;24.78;54.55;97108.81;5068194;28;20769;-72
2021/08/13 05:57:36;;;;;;;9.77;8.60;;;;;;;24.83;54.60;97107.00;5071485;28;20424;-73
2021/08/13 06:00:03;;;;;;;13.13;8.87;;;;;;;24.91;54.45;97104.94;5060380;28;20563;-71
2021/08/13 06:02:28;;;;;;;17.90;9.60;;;;;;;25.08;54.00;97097.69;5049909;28;20206;-72
2021/08/13 06:04:57;;;;;;;13.30;8.53;;;;;;;25.54;52.67;97092.09;5072781;28;20460;-72
2021/08/13 06:07:24;;;;;;;13.33;9.03;;;;;;;25.84;51.41;97096.13;5064541;28;20178;-72
2021/08/13 06:09:49;;;;;;;12.00;9.17;;;;;;;26.01;51.23;97092.53;5060203;28;20550;-72
2021/08/13 06:12:15;;;;;;;14.40;10.00;;;;;;;26.16;51.08;97105.28;5069970;28;20440;-71
2021/08/13 06:14:41;;;;;;;12.90;9.03;;;;;;;26.29;50.67;97102.19;5063582;28;20199;-72
2021/08/13 06:17:06;;;;;;;10.00;8.67;;;;;;;26.55;49.93;97110.44;5056456;28;20208;-72
2021/08/13 06:19:32;;;;;;;13.77;9.20;;;;;;;26.68;49.58;97111.88;5065424;28;20190;-73
2021/08/13 06:21:58;;;;;;;13.10;9.47;;;;;;;26.47;50.10;97124.34;5072316;28;20724;-72
2021/08/13 06:24:24;;;;;;;11.90;8.50;;;;;;;26.67;49.71;97121.00;5047063;28;20235;-71
2021/08/13 06:26:53;;;;;;;15.70;9.60;;;;;;;26.76;50.04;97124.03;5047729;28;20421;-71
2021/08/13 06:29:21;;;;;;;13.27;9.00;;;;;;;26.49;49.97;97120.34;5060481;28;20547;-74
2021/08/13 06:31:47;;;;;;;9.67;7.93;;;;;;;26.80;49.60;97125.97;5045566;28;20530;-71
2021/08/13 06:34:13;;;;;;;10.63;8.50;;;;;;;26.85;49.07;97127.03;5071557;28;20783;-72
2021/08/13 06:36:39;;;;;;;10.13;8.67;;;;;;;26.85;48.59;97127.88;5060624;28;20430;-74
2021/08/13 06:39:04;;;;;;;9.73;7.77;;;;;;;27.02;48.62;97130.38;5069392;28;20261;-74
2021/08/13 06:41:30;;;;;;;8.47;7.57;;;;;;;27.08;48.32;97129.34;5065718;28;20210;-72
2021/08/13 06:43:55;;;;;;;13.50;8.10;;;;;;;27.17;48.28;97134.22;5050255;28;20239;-72
2021/08/13 06:46:21;;;;;;;16.97;9.30;;;;;;;27.25;48.25;97131.00;5054027;28;20215;-71
2021/08/13 06:48:47;;;;;;;10.07;8.27;;;;;;;27.11;48.27;97128.00;5070109;28;20194;-71
2021/08/13 06:51:12;;;;;;;11.23;7.37;;;;;;;27.41;48.27;97129.19;5039595;28;20217;-72
2021/08/13 06:53:38;;;;;;;10.30;8.83;;;;;;;27.28;48.07;97130.50;5073983;28;20657;-72
2021/08/13 06:56:03;;;;;;;9.70;8.70;;;;;;;27.56;47.58;97128.50;5055564;28;20182;-72
2021/08/13 06:58:29;;;;;;;14.33;8.70;;;;;;;27.86;46.81;97130.44;5073926;28;20315;-72
2021/08/13 07:00:55;;;;;;;8.47;7.67;;;;;;;28.29;45.84;97132.94;5088515;28;20188;-73
2021/08/13 07:03:20;;;;;;;13.97;7.40;;;;;;;28.64;44.80;97134.00;5096184;28;20250;-73
2021/08/13 07:05:46;;;;;;;10.23;7.57;;;;;;;28.99;44.60;97128.03;5090107;28;20185;-73
2021/08/13 07:08:12;;;;;;;11.50;7.03;;;;;;;29.25;43.44;97134.97;5083014;28;20213;-73
2021/08/13 07:10:38;;;;;;;7.60;6.10;;;;;;;29.40;42.81;97130.63;5055509;28;20202;-73
2021/08/13 07:13:04;;;;;;;14.90;7.67;;;;;;;29.48;43.34;97142.72;5077443;28;20450;-73
2021/08/13 07:15:30;;;;;;;15.90;7.73;;;;;;;29.34;42.71;97148.72;5063771;28;20193;-73
2021/08/13 07:17:55;;;;;;;10.77;5.50;;;;;;;28.79;43.14;97148.56;5084805;28;20436;-73
2021/08/13 07:20:21;;;;;;;13.50;5.60;;;;;;;28.86;42.82;97132.91;5074747;28;20189;-74
2021/08/13 07:22:46;;;;;;;7.27;5.77;;;;;;;28.61;43.23;97139.94;5067454;28;20247;-73
2021/08/13 07:25:12;;;;;;;9.10;5.80;;;;;;;28.61;43.71;97139.13;5084957;28;20183;-74
2021/08/13 07:27:38;;;;;;;7.03;4.93;;;;;;;29.20;42.22;97140.38;5071976;28;20186;-74
2021/08/13 07:30:04;;;;;;;10.90;5.33;;;;;;;28.61;44.08;97139.94;5069882;28;20562;-73
2021/08/13 07:32:30;;;;;;;9.17;5.80;;;;;;;29.45;41.96;97136.00;5072173;28;20281;-72
2021/08/13 07:34:56;;;;;;;9.10;4.97;;;;;;;29.79;41.72;97135.28;5071331;28;20563;-73
2021/08/13 07:37:22;;;;;;;10.67;5.60;;;;;;;30.12;40.48;97138.34;5070038;28;20182;-72
2021/08/13 07:39:48;;;;;;;10.63;5.37;;;;;;;29.91;41.04;97142.22;5054970;28;20420;-73
2021/08/13 07:42:17;;;;;;;10.43;4.87;;;;;;;30.29;40.53;97147.94;5054878;28;20195;-73
2021/08/13 07:44:44;;;;;;;14.30;5.10;;;;;;;30.21;40.65;97145.84;5058594;28;20417;-73
2021/08/13 07:47:11;;;;;;;9.10;5.50;;;;;;;30.17;40.47;97146.41;5069219;28;20420;-73
2021/08/13 07:49:36;;;;;;;7.23;4.67;;;;;;;30.40;39.91;97146.78;5071916;28;20550;-73
2021/08/13 07:52:02;;;;;;;6.50;4.57;;;;;;;30.72;38.65;97156.28;5071757;28;20898;-73
2021/08/13 07:54:29;;;;;;;8.93;5.00;;;;;;;31.03;37.82;97150.53;5064219;28;20279;-73
2021/08/13 07:56:55;;;;;;;12.23;5.70;;;;;;;30.32;38.27;97150.88;5062405;28;21026;-72
2021/08/13 07:59:20;;;;;;;9.07;4.67;;;;;;;30.73;37.31;97157.88;5067717;28;20453;-72
2021/08/13 08:01:46;;;;;;;7.07;4.87;;;;;;;30.74;37.50;97155.97;5071344;28;20200;-72
2021/08/13 08:04:12;;;;;;;10.00;4.47;;;;;;;30.98;37.07;97158.72;5069015;28;20218;-72
2021/08/13 08:06:37;;;;;;;7.93;4.03;;;;;;;30.21;37.88;97156.66;5071461;28;20508;-73
2021/08/13 08:09:03;;;;;;;7.90;4.47;;;;;;;30.13;38.15;97158.84;5071594;28;20586;-72
2021/08/13 08:11:29;;;;;;;12.23;5.27;;;;;;;30.16;38.64;97169.09;5071336;28;20198;-73
2021/08/13 08:13:54;;;;;;;7.67;4.43;;;;;;;31.03;36.85;97169.47;5064397;28;20614;-72
2021/08/13 08:16:20;;;;;;;9.50;4.40;;;;;;;30.94;37.21;97168.50;5069306;28;20178;-72
2021/08/13 08:18:46;;;;;;;8.83;4.70;;;;;;;31.15;37.10;97173.72;5066701;28;20597;-72
2021/08/13 08:21:12;;;;;;;7.37;4.40;;;;;;;31.60;36.26;97168.88;5072806;28;20189;-72
2021/08/13 08:23:37;;;;;;;10.37;5.03;;;;;;;31.62;36.73;97180.22;5063571;28;20483;-72
2021/08/13 08:26:03;;;;;;;6.93;4.60;;;;;;;31.97;36.18;97178.16;5067193;28;20232;-72
2021/08/13 08:28:29;;;;;;;7.83;4.20;;;;;;;31.06;37.86;97177.03;5057831;28;20175;-73
2021/08/13 08:30:54;;;;;;;14.67;5.37;;;;;;;31.04;38.29;97179.22;5074694;28;20602;-72
2021/08/13 08:33:20;;;;;;;9.33;4.60;;;;;;;31.71;36.65;97191.22;5066365;28;20202;-72
2021/08/13 08:35:46;;;;;;;7.70;4.07;;;;;;;32.10;35.96;97178.53;5075297;28;20174;-73
2021/08/13 08:38:12;;;;;;;7.77;4.60;;;;;;;32.51;35.33;97174.38;5058471;28;20194;-73
2021/08/13 08:40:38;;;;;;;7.77;4.50;;;;;;;32.35;36.26;97188.19;5074807;28;20511;-72
2021/08/13 08:43:09;;;;;;;6.63;4.30;;;;;;;31.85;36.87;97188.63;5073439;28;20316;-73
2021/08/13 08:45:36;;;;;;;6.87;5.30;;;;;;;31.85;36.89;97197.53;5065624;28;20420;-72
2021/08/13 08:48:06;;;;;;;5.77;4.80;;;;;;;31.92;36.32;97194.47;5074643;28;20471;-74
2021/08/13 08:50:34;;;;;;;8.17;4.93;;;;;;;31.63;37.42;97189.13;5075078;28;20427;-73
2021/08/13 08:53:03;;;;;;;8.33;4.40;;;;;;;31.83;37.00;97180.75;5074969;28;20444;-72
2021/08/13 08:55:30;;;;;;;7.20;4.30;;;;;;;31.48;37.75;97182.81;5071263;28;20783;-73
2021/08/13 08:57:57;;;;;;;17.20;5.17;;;;;;;32.36;36.09;97180.88;5064037;28;21004;-72
2021/08/13 09:00:23;;;;;;;10.90;5.20;;;;;;;32.45;36.08;97179.09;5073858;28;20900;-73
2021/08/13 09:02:49;;;;;;;9.00;4.57;;;;;;;32.28;36.42;97188.56;5063066;28;20514;-74
2021/08/13 09:05:14;;;;;;;11.77;5.07;;;;;;;32.72;35.83;97180.28;5054732;28;20537;-73
2021/08/13 09:07:40;;;;;;;11.37;4.80;;;;;;;32.92;35.47;97181.88;5075770;28;20178;-72
2021/08/13 09:10:08;;;;;;;13.33;4.90;;;;;;;32.93;35.43;97186.19;5074751;28;20549;-73
2021/08/13 09:12:34;;;;;;;11.73;4.90;;;;;;;32.17;36.99;97197.91;5057642;28;20261;-73
2021/08/13 09:14:59;;;;;;;15.27;4.67;;;;;;;32.14;36.80;97196.59;5057498;28;20954;-73
2021/08/13 09:17:30;;;;;;;8.00;5.07;;;;;;;32.86;35.58;97200.13;5074605;28;20448;-73
2021/08/13 09:19:56;;;;;;;6.77;4.77;;;;;;;32.32;36.80;97196.94;5066515;28;20198;-72
2021/08/13 09:22:22;;;;;;;6.23;4.67;;;;;;;33.00;35.46;97188.50;5073985;28;20863;-73
2021/08/13 09:24:50;;;;;;;8.07;4.70;;;;;;;32.68;36.41;97190.94;5058090;28;20581;-72
2021/08/13 09:27:26;;;;;;;12.70;4.50;;;;;;;33.07;35.66;97180.75;5074009;28;20182;-72
2021/08/13 09:30:17;;;;;;;10.90;4.73;;;;;;;33.00;35.42;97191.22;5068654;28;20938;-73
2021/08/13 09:32:58;;;;;;;10.70;4.60;;;;;;;33.34;35.77;97195.47;5074117;28;20912;-73
2021/08/13 09:35:35;;;;;;;9.73;5.50;;;;;;;32.21;37.72;97201.66;5073508;28;20505;-72
2021/08/13 09:38:02;;;;;;;9.10;5.43;;;;;;;33.54;35.42;97184.22;5073195;28;20519;-72
2021/08/13 09:40:36;;;;;;;12.83;5.50;;;;;;;33.26;35.99;97188.03;5071567;28;20488;-73
2021/08/13 09:43:02;;;;;;;14.80;5.27;;;;;;;33.88;35.15;97193.06;5056947;28;20535;-72
2021/08/13 09:45:28;;;;;;;8.77;5.00;;;;;;;34.11;34.31;97188.47;5055293;28;20871;-71
2021/08/13 09:47:53;;;;;;;8.90;4.60;;;;;;;33.91;34.38;97189.72;5064931;28;20425;-73
2021/08/13 09:50:41;;;;;;;8.67;5.33;;;;;;;33.36;36.02;97190.56;5060042;28;20198;-73
2021/08/13 09:53:07;;;;;;;6.33;5.00;;;;;;;32.70;37.14;97193.34;5070620;28;20197;-73
2021/08/13 09:55:32;;;;;;;9.33;5.47;;;;;;;33.66;35.10;97191.84;5069487;28;20428;-73
2021/08/13 09:57:58;;;;;;;14.00;5.87;;;;;;;33.90;35.04;97184.63;5070532;28;20190;-73
2021/08/13 10:00:23;;;;;;;8.63;5.40;;;;;;;33.97;35.02;97188.50;5076101;28;20178;-73
2021/08/13 10:02:49;;;;;;;8.33;5.63;;;;;;;33.56;35.96;97188.53;5056275;28;20293;-72
2021/08/13 10:05:19;;;;;;;15.40;5.90;;;;;;;32.80;37.25;97186.94;5071214;28;20209;-73
2021/08/13 10:07:47;;;;;;;7.17;5.00;;;;;;;33.79;35.56;97181.28;5072940;28;20185;-74
2021/08/13 10:10:13;;;;;;;31.97;9.03;;;;;;;33.63;35.66;97183.53;5022227;28;20433;-73
2021/08/13 10:12:45;;;;;;;7.40;5.70;;;;;;;33.20;36.01;97179.97;5066459;28;20933;-72
2021/08/13 10:15:27;;;;;;;9.70;5.63;;;;;;;33.69;35.13;97196.69;5061649;28;20292;-73
2021/08/13 10:17:54;;;;;;;13.60;6.50;;;;;;;33.69;35.52;97180.38;5072630;28;20939;-73
2021/08/13 10:20:19;;;;;;;13.73;6.67;;;;;;;33.49;36.37;97181.63;5046652;28;20427;-73
2021/08/13 10:22:45;;;;;;;8.00;4.60;;;;;;;33.10;37.03;97185.59;5071679;28;20439;-74
2021/08/13 10:25:11;;;;;;;10.33;5.40;;;;;;;33.05;36.76;97180.25;5055560;28;20178;-75
2021/08/13 10:27:37;;;;;;;11.20;5.63;;;;;;;33.04;37.15;97184.06;5082640;28;20179;-74
2021/08/13 10:30:02;;;;;;;11.93;5.13;;;;;;;33.94;36.08;97178.25;5085764;28;20532;-76
2021/08/13 10:32:28;;;;;;;10.63;5.50;;;;;;;33.99;35.26;97180.84;5087005;28;20284;-76
2021/08/13 10:34:54;;;;;;;9.27;6.27;;;;;;;33.67;36.15;97182.59;5086677;28;20210;-75
2021/08/13 10:37:23;;;;;;;19.93;6.30;;;;;;;33.07;37.57;97180.75;5080373;28;20236;-72
2021/08/13 10:39:48;;;;;;;8.77;5.80;;;;;;;33.85;36.07;97183.56;5072261;28;20781;-72
2021/08/13 10:42:18;;;;;;;14.00;7.03;;;;;;;33.88;36.38;97186.81;5062538;28;20437;-72
2021/08/13 10:44:48;;;;;;;10.80;5.90;;;;;;;34.56;35.08;97195.06;5062246;28;20258;-71
2021/08/13 10:47:16;;;;;;;8.60;5.90;;;;;;;33.82;36.46;97189.63;5071507;28;20504;-73
2021/08/13 10:49:45;;;;;;;11.17;5.83;;;;;;;33.71;37.31;97188.22;5069437;28;20424;-75
2021/08/13 10:52:10;;;;;;;7.90;5.13;;;;;;;32.04;39.87;97188.63;5072262;28;20498;-72
2021/08/13 10:54:41;;;;;;;15.43;6.80;;;;;;;32.74;39.08;97188.94;5071997;28;20456;-73
2021/08/13 10:57:09;;;;;;;10.47;6.83;;;;;;;32.42;40.01;97183.22;5069274;28;20831;-72
2021/08/13 10:59:40;;;;;;;15.30;7.10;;;;;;;32.29;40.52;97179.31;5040902;28;20784;-74
2021/08/13 11:02:16;;;;;;;14.00;8.20;;;;;;;32.38;39.95;97181.38;5062478;28;20871;-72
2021/08/13 11:04:47;;;;;;;15.23;7.10;;;;;;;32.44;39.73;97191.03;5071961;28;20417;-74
2021/08/13 11:07:13;;;;;;;9.07;6.80;;;;;;;32.67;39.48;97188.50;5072073;28;20903;-74
2021/08/13 11:09:40;;;;;;;7.37;6.57;;;;;;;31.66;41.32;97191.28;5067068;28;20428;-72
2021/08/13 11:12:12;;;;;;;12.60;7.00;;;;;;;31.77;41.14;97190.06;5067521;28;20445;-72
2021/08/13 11:14:52;;;;;;;12.97;6.90;;;;;;;32.24;40.66;97181.28;5062573;28;20467;-71
2021/08/13 11:17:42;;;;;;;15.77;9.77;;;;;;;32.63;39.73;97180.97;5050399;28;20505;-72
2021/08/13 11:20:12;;;;;;;15.00;7.80;;;;;;;33.00;39.28;97172.22;5057459;28;20492;-72
2021/08/13 11:22:39;;;;;;;9.60;6.77;;;;;;;32.83;40.01;97176.31;5053593;28;20457;-72
2021/08/13 11:25:13;;;;;;;19.83;7.70;;;;;;;33.39;38.54;97170.97;5065037;28;21006;-72